Terminal Aerodrome Forecast
Issued by NWS Louisville, KY

Home | Current Version | Previous Version | Text Only | Print | Product List | Glossary On
Versions: 1 2 3 4 5 6 7 8 9 10 11 12 13 14 15 16 17 18
000
FTUS43 KLMK 232100 AAB
TAFLEX
TAF AMD
KLEX 232112Z 2321/2418 06007KT P6SM -RASNPL SCT025 BKN080
      TEMPO 2321/2323 1SM -SN BR BKN025
     FM232300 03004KT 3SM -SNPL SCT007 BKN012
     FM240000 04004KT 3SM -SN BKN007
      TEMPO 2401/2405 1SM -SN BKN007
     FM240800 33003KT P6SM SCT012 BKN025
     FM241200 26005KT P6SM SCT025 BKN080=

USA.gov is the U.S. government's official web portal to all federal, state and local government web resources and services.